Time;durP1;ratioP1;P1;durP2;ratioP2;P2;SDS_P1;SDS_P2;PMS_P1;PMS_P2;Temp;Humidity;BMP_temperature;BMP_pressure;BME280_temperature;BME280_humidity;BME280_pressure;Samples;Min_cycle;Max_cycle;Signal;HPM_P1;HPM_P2
2022/04/07 00:00:53;;;;;;;2.17;1.70;;;12.10;99.90;;;;;;5054344;28;20871;-70
2022/04/07 00:03:19;;;;;;;1.77;1.63;;;12.30;99.90;;;;;;5054203;28;20176;-71
2022/04/07 00:05:44;;;;;;;2.37;2.10;;;12.20;99.90;;;;;;5054584;28;20556;-69
2022/04/07 00:08:11;;;;;;;2.20;2.00;;;12.10;99.90;;;;;;5054179;28;20269;-70
2022/04/07 00:10:36;;;;;;;2.40;1.87;;;12.10;99.90;;;;;;5054253;28;21024;-70
2022/04/07 00:13:03;;;;;;;1.50;1.40;;;12.10;99.90;;;;;;5054004;28;20408;-71
2022/04/07 00:15:29;;;;;;;1.83;1.67;;;12.20;99.90;;;;;;5053960;28;20532;-70
2022/04/07 00:17:55;;;;;;;1.53;1.30;;;12.30;99.90;;;;;;5052974;28;21017;-71
2022/04/07 00:20:21;;;;;;;1.63;1.50;;;12.00;99.90;;;;;;5053964;28;20489;-70
2022/04/07 00:22:47;;;;;;;2.00;1.40;;;11.90;99.90;;;;;;5054171;28;20189;-71
2022/04/07 00:25:13;;;;;;;1.33;1.23;;;11.90;99.90;;;;;;5054169;28;20452;-70
2022/04/07 00:27:39;;;;;;;1.53;1.43;;;11.90;99.90;;;;;;5053976;28;20435;-70
2022/04/07 00:30:08;;;;;;;1.40;1.30;;;12.00;99.90;;;;;;5053044;28;20412;-71
2022/04/07 00:32:40;;;;;;;1.23;1.13;;;12.10;99.90;;;;;;5034955;28;20421;-71
2022/04/07 00:35:08;;;;;;;1.23;1.03;;;12.10;99.90;;;;;;5053701;28;20399;-71
2022/04/07 00:37:35;;;;;;;1.90;1.07;;;12.00;99.90;;;;;;5053313;28;20436;-71
2022/04/07 00:40:01;;;;;;;1.10;1.00;;;12.00;99.90;;;;;;5053447;28;20405;-70
2022/04/07 00:42:26;;;;;;;1.00;0.73;;;12.00;99.90;;;;;;5053507;28;20527;-71
2022/04/07 00:44:52;;;;;;;1.57;1.07;;;12.20;99.90;;;;;;5053083;28;20913;-70
2022/04/07 00:47:18;;;;;;;1.20;1.10;;;12.40;99.90;;;;;;5052954;28;20250;-69
2022/04/07 00:49:43;;;;;;;1.30;1.20;;;12.40;99.90;;;;;;5053427;28;20170;-71
2022/04/07 00:52:11;;;;;;;1.33;1.00;;;12.50;99.90;;;;;;5053636;28;20221;-70
2022/04/07 00:54:37;;;;;;;1.10;1.00;;;12.50;99.90;;;;;;5053506;28;20593;-71
2022/04/07 00:57:05;;;;;;;1.37;1.20;;;12.50;99.90;;;;;;5052704;28;20457;-72
2022/04/07 00:59:34;;;;;;;1.20;1.10;;;12.40;99.90;;;;;;5053175;28;20661;-70
2022/04/07 01:02:00;;;;;;;0.90;0.80;;;12.30;99.90;;;;;;5052088;28;20428;-70
2022/04/07 01:04:25;;;;;;;1.43;1.20;;;12.40;99.90;;;;;;5053269;28;20808;-70
2022/04/07 01:06:52;;;;;;;1.03;1.00;;;12.30;99.90;;;;;;5052761;28;20558;-71
2022/04/07 01:09:19;;;;;;;1.13;1.03;;;12.40;99.90;;;;;;5053002;28;20163;-70
2022/04/07 01:11:46;;;;;;;1.00;0.87;;;12.50;99.90;;;;;;5053164;28;20429;-71
2022/04/07 01:14:12;;;;;;;1.10;1.00;;;12.40;99.90;;;;;;5052828;28;20440;-71
2022/04/07 01:16:38;;;;;;;2.63;1.00;;;12.40;99.90;;;;;;5052489;28;20448;-71
2022/04/07 01:19:04;;;;;;;2.13;1.10;;;12.60;99.90;;;;;;5053289;28;20411;-71
2022/04/07 01:21:31;;;;;;;1.10;1.00;;;12.50;99.90;;;;;;5051893;28;20428;-71
2022/04/07 01:24:05;;;;;;;1.00;0.90;;;12.40;99.90;;;;;;5051976;28;20177;-68
2022/04/07 01:26:34;;;;;;;2.20;1.10;;;12.50;99.90;;;;;;5052824;28;20460;-71
2022/04/07 01:29:00;;;;;;;1.23;1.13;;;12.50;99.90;;;;;;5053260;28;20451;-70
2022/04/07 01:31:27;;;;;;;1.23;1.13;;;12.60;99.90;;;;;;5051623;28;20460;-70
2022/04/07 01:33:54;;;;;;;0.97;0.87;;;12.70;99.90;;;;;;5052675;28;20913;-70
2022/04/07 01:36:19;;;;;;;1.40;1.00;;;12.50;99.90;;;;;;5052943;28;20801;-70
2022/04/07 01:38:46;;;;;;;1.80;1.10;;;12.50;99.90;;;;;;5052595;28;20425;-69
2022/04/07 01:41:12;;;;;;;0.90;0.90;;;12.30;99.90;;;;;;5053271;28;20174;-70
2022/04/07 01:43:40;;;;;;;1.47;1.30;;;12.20;99.90;;;;;;5051372;28;20779;-70
2022/04/07 01:46:10;;;;;;;1.27;1.00;;;12.10;99.90;;;;;;5052597;28;20453;-70
2022/04/07 01:48:36;;;;;;;1.03;0.90;;;12.10;99.90;;;;;;5034700;28;20420;-70
2022/04/07 01:51:02;;;;;;;0.80;0.80;;;12.10;99.90;;;;;;5052516;28;20774;-70
2022/04/07 01:53:29;;;;;;;1.30;1.20;;;11.90;99.90;;;;;;5049773;28;20178;-70
2022/04/07 01:55:55;;;;;;;1.30;1.10;;;11.90;99.90;;;;;;5054173;28;20419;-70
2022/04/07 01:58:22;;;;;;;1.40;1.30;;;12.00;99.90;;;;;;5062083;28;20484;-72
2022/04/07 02:00:47;;;;;;;2.80;1.50;;;11.80;99.90;;;;;;5052623;28;20748;-70
2022/04/07 02:03:13;;;;;;;1.47;1.30;;;11.90;99.90;;;;;;5052390;28;20495;-70
2022/04/07 02:05:38;;;;;;;1.10;1.00;;;11.90;99.90;;;;;;5052698;28;20197;-70
2022/04/07 02:08:04;;;;;;;1.10;1.00;;;11.80;99.90;;;;;;5052537;28;20282;-70
2022/04/07 02:10:32;;;;;;;1.43;1.23;;;11.80;99.90;;;;;;5034583;28;20171;-70
2022/04/07 02:12:58;;;;;;;2.00;1.30;;;11.90;99.90;;;;;;5052331;28;20800;-70
2022/04/07 02:15:26;;;;;;;1.00;0.90;;;11.90;99.90;;;;;;5034895;28;20866;-70
2022/04/07 02:17:52;;;;;;;1.20;1.10;;;12.00;99.90;;;;;;5052151;28;20795;-70
2022/04/07 02:20:18;;;;;;;1.17;1.07;;;11.90;99.90;;;;;;5052392;28;20420;-70
2022/04/07 02:22:44;;;;;;;3.07;1.40;;;11.70;99.90;;;;;;5052098;28;20206;-69
2022/04/07 02:25:10;;;;;;;1.67;1.07;;;11.70;99.90;;;;;;5052309;28;20449;-70
2022/04/07 02:27:40;;;;;;;1.60;1.50;;;11.70;99.90;;;;;;5051742;28;20204;-70
2022/04/07 02:30:14;;;;;;;1.10;1.00;;;11.70;99.90;;;;;;5034187;28;20437;-71
2022/04/07 02:32:43;;;;;;;1.23;1.00;;;11.80;99.90;;;;;;5051524;28;20513;-70
2022/04/07 02:35:11;;;;;;;1.30;1.20;;;11.90;99.90;;;;;;5051997;28;20489;-71
2022/04/07 02:37:37;;;;;;;1.40;1.20;;;11.70;99.90;;;;;;5052058;28;20425;-71
2022/04/07 02:40:03;;;;;;;1.23;1.10;;;11.70;99.90;;;;;;5053661;28;20404;-71
2022/04/07 02:42:29;;;;;;;0.90;0.90;;;11.70;99.90;;;;;;5055990;28;20671;-71
2022/04/07 02:44:54;;;;;;;1.17;1.07;;;11.70;99.90;;;;;;5055301;28;20445;-70
2022/04/07 02:47:20;;;;;;;0.90;0.80;;;11.70;99.90;;;;;;5053936;28;20297;-71
2022/04/07 02:49:46;;;;;;;1.10;1.00;;;11.70;99.90;;;;;;5055340;28;20225;-70
2022/04/07 02:52:12;;;;;;;1.30;1.20;;;11.80;99.90;;;;;;5055452;28;20166;-70
2022/04/07 02:54:38;;;;;;;1.47;1.37;;;11.80;99.90;;;;;;5055226;28;20397;-70
2022/04/07 02:57:04;;;;;;;1.67;1.10;;;11.90;99.90;;;;;;5055120;28;20503;-70
2022/04/07 02:59:32;;;;;;;1.50;1.03;;;11.80;99.90;;;;;;5055382;28;20489;-70
2022/04/07 03:01:58;;;;;;;1.57;1.20;;;11.70;99.90;;;;;;5055034;28;20478;-71
2022/04/07 03:04:24;;;;;;;1.07;0.90;;;11.60;99.90;;;;;;5055699;28;20397;-71
2022/04/07 03:06:53;;;;;;;1.20;1.10;;;11.80;99.90;;;;;;5056009;28;20455;-71
2022/04/07 03:09:19;;;;;;;1.13;0.90;;;11.60;99.90;;;;;;5055792;28;20398;-70
2022/04/07 03:11:46;;;;;;;0.90;0.80;;;11.40;99.90;;;;;;5037128;28;20409;-70
2022/04/07 03:14:12;;;;;;;1.03;0.93;;;11.40;99.90;;;;;;5055266;28;20491;-70
2022/04/07 03:16:39;;;;;;;0.90;0.90;;;11.30;99.90;;;;;;5054334;28;20444;-70
2022/04/07 03:19:04;;;;;;;1.80;0.90;;;11.40;99.90;;;;;;5055424;28;20983;-70
2022/04/07 03:21:30;;;;;;;0.90;0.70;;;11.40;99.90;;;;;;5055012;28;20411;-69
2022/04/07 03:23:55;;;;;;;1.07;0.90;;;11.40;99.90;;;;;;5055001;28;20638;-70
2022/04/07 03:26:21;;;;;;;2.50;1.00;;;11.40;99.90;;;;;;5054782;28;20304;-69
2022/04/07 03:28:47;;;;;;;1.10;1.00;;;11.60;99.90;;;;;;5055023;28;20690;-70
2022/04/07 03:31:12;;;;;;;1.20;0.80;;;11.60;99.90;;;;;;5054477;28;20165;-70
2022/04/07 03:33:38;;;;;;;1.00;0.73;;;11.50;99.90;;;;;;5036562;28;20655;-70
2022/04/07 03:36:04;;;;;;;1.07;0.97;;;11.60;99.90;;;;;;5054873;28;20175;-70
2022/04/07 03:38:29;;;;;;;1.70;1.00;;;11.30;99.90;;;;;;5055024;28;20250;-69
2022/04/07 03:40:55;;;;;;;0.90;0.70;;;11.40;99.90;;;;;;5036782;28;20419;-72
2022/04/07 03:43:21;;;;;;;1.13;0.97;;;11.50;99.90;;;;;;5054518;28;20177;-71
2022/04/07 03:45:47;;;;;;;1.00;0.90;;;11.60;99.90;;;;;;5054592;28;20198;-71
2022/04/07 03:48:12;;;;;;;1.37;0.70;;;11.50;99.90;;;;;;5053938;28;20186;-70
2022/04/07 03:50:38;;;;;;;1.90;0.97;;;11.20;99.90;;;;;;5054145;28;20697;-71
2022/04/07 03:53:04;;;;;;;2.10;0.87;;;11.30;99.90;;;;;;5054211;28;20175;-71
2022/04/07 03:55:30;;;;;;;1.93;1.00;;;11.30;99.90;;;;;;5055023;28;20170;-71
2022/04/07 03:57:56;;;;;;;1.53;0.80;;;11.30;99.90;;;;;;5054786;28;20425;-70
2022/04/07 04:00:22;;;;;;;1.27;0.90;;;11.40;99.90;;;;;;5054567;28;20167;-71
2022/04/07 04:02:48;;;;;;;1.83;1.00;;;11.30;99.90;;;;;;5054913;28;20170;-72
2022/04/07 04:05:14;;;;;;;0.97;0.90;;;11.20;99.90;;;;;;5071869;28;20947;-71
2022/04/07 04:07:40;;;;;;;2.90;1.10;;;11.10;99.90;;;;;;5074383;28;20420;-70
2022/04/07 04:10:05;;;;;;;2.57;1.50;;;11.10;99.90;;;;;;5074402;28;20190;-70
2022/04/07 04:12:31;;;;;;;2.43;0.90;;;11.10;99.90;;;;;;5074136;28;20177;-69
2022/04/07 04:14:57;;;;;;;2.00;0.97;;;11.20;99.90;;;;;;5074838;28;20224;-70
2022/04/07 04:17:23;;;;;;;1.33;1.03;;;11.20;99.90;;;;;;5070921;22;20294;-70
2022/04/07 04:19:48;;;;;;;3.10;0.90;;;11.20;99.90;;;;;;5014180;28;20487;-71
2022/04/07 04:22:14;;;;;;;3.13;1.10;;;11.10;99.90;;;;;;5013128;28;20187;-71
2022/04/07 04:24:39;;;;;;;2.40;1.23;;;11.10;99.90;;;;;;4995363;28;20184;-72
2022/04/07 04:27:05;;;;;;;1.20;1.00;;;11.10;99.90;;;;;;5013922;28;20705;-71
2022/04/07 04:29:31;;;;;;;2.27;0.90;;;11.10;99.90;;;;;;5033518;28;20636;-70
2022/04/07 04:31:56;;;;;;;1.07;0.83;;;11.10;99.90;;;;;;5023347;28;20185;-71
2022/04/07 04:34:22;;;;;;;1.47;1.07;;;11.10;99.90;;;;;;5024144;28;20175;-71
2022/04/07 04:36:47;;;;;;;1.30;1.10;;;11.10;99.90;;;;;;5006548;28;20182;-73
2022/04/07 04:39:13;;;;;;;1.37;1.03;;;11.20;99.90;;;;;;5024176;28;20702;-73
2022/04/07 04:41:38;;;;;;;1.10;0.87;;;11.20;99.90;;;;;;5024367;28;20175;-71
2022/04/07 04:44:04;;;;;;;1.20;0.90;;;11.30;99.90;;;;;;5024269;28;20186;-71
2022/04/07 04:46:30;;;;;;;2.10;1.00;;;11.20;99.90;;;;;;5005169;28;20228;-72
2022/04/07 04:48:56;;;;;;;1.90;1.20;;;11.30;99.90;;;;;;5023561;28;20181;-72
2022/04/07 04:51:21;;;;;;;2.03;1.07;;;11.40;99.90;;;;;;5024071;28;20300;-73
2022/04/07 04:53:47;;;;;;;1.20;0.90;;;11.30;99.90;;;;;;5024147;28;20505;-71
2022/04/07 04:56:13;;;;;;;1.73;1.13;;;11.40;99.90;;;;;;5024465;28;20187;-72
2022/04/07 04:58:38;;;;;;;0.90;0.80;;;11.30;99.90;;;;;;5024243;28;20203;-71
2022/04/07 05:01:04;;;;;;;1.93;1.00;;;11.50;99.90;;;;;;5023863;28;20176;-72
2022/04/07 05:03:31;;;;;;;0.80;0.80;;;11.50;99.90;;;;;;5023398;28;20225;-69
2022/04/07 05:05:57;;;;;;;1.77;1.17;;;11.50;99.90;;;;;;5024132;28;20206;-70
2022/04/07 05:08:22;;;;;;;0.93;0.83;;;11.50;99.90;;;;;;5025751;28;20438;-72
2022/04/07 05:10:48;;;;;;;0.83;0.70;;;11.60;99.90;;;;;;5025084;28;20901;-71
2022/04/07 05:13:14;;;;;;;1.77;0.90;;;11.60;99.90;;;;;;5024013;28;20233;-70
2022/04/07 05:15:39;;;;;;;1.43;0.90;;;11.70;99.90;;;;;;5024151;28;20194;-70
2022/04/07 05:18:06;;;;;;;0.80;0.77;;;11.70;99.90;;;;;;5023251;28;20449;-72
2022/04/07 05:20:31;;;;;;;1.77;1.33;;;11.60;99.90;;;;;;5025990;28;20189;-71
2022/04/07 05:22:57;;;;;;;1.10;1.00;;;11.50;99.90;;;;;;5024820;28;20419;-70
2022/04/07 05:25:22;;;;;;;0.93;0.80;;;11.30;99.90;;;;;;5025085;28;20214;-72
2022/04/07 05:27:48;;;;;;;1.87;0.90;;;11.50;99.90;;;;;;5023604;28;20222;-71
2022/04/07 05:30:15;;;;;;;1.03;0.93;;;11.70;99.90;;;;;;5024753;28;20255;-71
2022/04/07 05:32:44;;;;;;;1.40;1.00;;;11.60;99.90;;;;;;5020890;28;20229;-71
2022/04/07 05:35:13;;;;;;;0.83;0.70;;;11.50;99.90;;;;;;5023670;28;20416;-71
2022/04/07 05:37:40;;;;;;;1.37;0.90;;;11.60;99.90;;;;;;5023587;28;20445;-71
2022/04/07 05:40:10;;;;;;;1.67;0.80;;;11.60;99.90;;;;;;5023438;28;20910;-73
2022/04/07 05:42:35;;;;;;;1.03;0.93;;;11.70;99.90;;;;;;5023422;28;20408;-71
2022/04/07 05:45:01;;;;;;;0.90;0.80;;;11.80;99.90;;;;;;5023115;28;20422;-71
2022/04/07 05:47:27;;;;;;;1.40;0.67;;;11.70;99.90;;;;;;5023231;28;20207;-71
2022/04/07 05:49:54;;;;;;;1.27;0.90;;;11.70;99.90;;;;;;5022974;28;20430;-72
2022/04/07 05:52:20;;;;;;;0.90;0.80;;;11.90;99.90;;;;;;5023577;28;20186;-70
2022/04/07 05:54:46;;;;;;;0.90;0.60;;;11.70;99.90;;;;;;5023159;28;20517;-73
2022/04/07 05:57:12;;;;;;;1.87;0.90;;;11.60;99.90;;;;;;5005546;28;20203;-72
2022/04/07 05:59:37;;;;;;;16.33;12.10;;;11.60;99.90;;;;;;5023535;28;20183;-71
2022/04/07 06:02:03;;;;;;;1.57;1.10;;;11.60;99.90;;;;;;5022398;28;20568;-72
2022/04/07 06:04:29;;;;;;;0.90;0.70;;;11.70;99.90;;;;;;5023097;28;20221;-71
2022/04/07 06:06:55;;;;;;;1.27;0.70;;;11.90;99.90;;;;;;5022960;28;20505;-71
2022/04/07 06:09:20;;;;;;;0.90;0.77;;;11.90;99.90;;;;;;5023200;28;20194;-71
2022/04/07 06:11:46;;;;;;;0.93;0.63;;;11.90;99.90;;;;;;5023008;28;20190;-73
2022/04/07 06:14:11;;;;;;;0.93;0.80;;;11.90;99.90;;;;;;5023435;28;20186;-72
2022/04/07 06:16:37;;;;;;;0.80;0.60;;;12.00;99.90;;;;;;5027392;28;20553;-72
2022/04/07 06:19:03;;;;;;;1.07;0.57;;;12.10;99.90;;;;;;5026656;28;20204;-73
2022/04/07 06:21:29;;;;;;;1.00;0.60;;;12.20;99.90;;;;;;5027225;28;20236;-72
2022/04/07 06:23:57;;;;;;;1.00;0.60;;;12.20;99.90;;;;;;5009604;28;20601;-72
2022/04/07 06:26:25;;;;;;;0.70;0.50;;;12.20;99.90;;;;;;5026629;28;20460;-72
2022/04/07 06:28:51;;;;;;;2.17;0.57;;;12.20;99.90;;;;;;5026881;28;20522;-72
2022/04/07 06:31:17;;;;;;;0.70;0.57;;;12.30;99.90;;;;;;5026824;28;21522;-72
2022/04/07 06:33:43;;;;;;;0.80;0.60;;;12.30;99.90;;;;;;5026485;28;20427;-71
2022/04/07 06:36:08;;;;;;;1.30;0.57;;;12.30;99.90;;;;;;5026711;28;20190;-72
2022/04/07 06:38:34;;;;;;;0.80;0.60;;;12.30;99.90;;;;;;5026730;28;20697;-71
2022/04/07 06:41:00;;;;;;;0.70;0.50;;;12.40;99.90;;;;;;5026706;28;20197;-71
2022/04/07 06:43:26;;;;;;;1.10;1.00;;;12.40;99.90;;;;;;5026388;28;20607;-72
2022/04/07 06:45:52;;;;;;;1.20;0.60;;;12.40;99.90;;;;;;5026706;28;20460;-71
2022/04/07 06:48:18;;;;;;;0.93;0.60;;;12.50;99.90;;;;;;5025788;28;20434;-71
2022/04/07 06:50:44;;;;;;;1.67;0.50;;;12.50;99.90;;;;;;5026679;28;20689;-73
2022/04/07 06:53:11;;;;;;;1.57;0.93;;;12.50;99.90;;;;;;5026479;28;20190;-72
2022/04/07 06:55:40;;;;;;;1.10;0.50;;;12.40;99.90;;;;;;5026196;28;20183;-71
2022/04/07 06:58:09;;;;;;;0.60;0.50;;;12.20;99.90;;;;;;5026429;28;20444;-73
2022/04/07 07:00:42;;;;;;;0.70;0.50;;;12.20;99.90;;;;;;5026680;28;20452;-73
2022/04/07 07:03:07;;;;;;;0.80;0.57;;;12.20;99.90;;;;;;5025862;28;20798;-72
2022/04/07 07:05:34;;;;;;;1.20;0.60;;;12.40;99.90;;;;;;5026072;28;20437;-71
2022/04/07 07:08:17;;;;;;;1.23;0.67;;;12.30;99.90;;;;;;5026561;28;20288;-72
2022/04/07 07:10:45;;;;;;;0.80;0.60;;;12.50;99.90;;;;;;5025965;28;20922;-72
2022/04/07 07:13:12;;;;;;;1.73;0.57;;;12.40;99.90;;;;;;5026896;28;20432;-71
2022/04/07 07:15:39;;;;;;;1.67;0.60;;;12.50;99.90;;;;;;5026247;28;20419;-70
2022/04/07 07:18:05;;;;;;;0.80;0.50;;;12.70;99.90;;;;;;5025805;28;20473;-72
2022/04/07 07:20:30;;;;;;;1.10;0.53;;;12.70;99.90;;;;;;5026176;28;20596;-69
2022/04/07 07:22:56;;;;;;;0.90;0.60;;;13.00;99.90;;;;;;5026457;28;20907;-70
2022/04/07 07:25:22;;;;;;;0.90;0.60;;;13.00;99.90;;;;;;5029094;28;20201;-70
2022/04/07 07:27:47;;;;;;;1.27;0.60;;;13.00;99.90;;;;;;5028261;28;20364;-72
2022/04/07 07:30:17;;;;;;;0.70;0.50;;;13.00;99.90;;;;;;5030553;28;20244;-69
2022/04/07 07:32:47;;;;;;;2.30;0.80;;;12.90;99.90;;;;;;5025578;28;20191;-70
2022/04/07 07:35:14;;;;;;;0.90;0.50;;;13.00;99.90;;;;;;5025855;28;20464;-74
2022/04/07 07:37:53;;;;;;;1.10;0.50;;;13.10;99.90;;;;;;5025895;28;21393;-72
2022/04/07 07:40:21;;;;;;;2.03;0.73;;;13.20;99.90;;;;;;5024513;28;20879;-73
2022/04/07 07:42:47;;;;;;;4.47;0.87;;;13.20;99.90;;;;;;5026048;28;20419;-74
2022/04/07 07:45:14;;;;;;;3.17;0.80;;;13.30;99.90;;;;;;5025677;28;20423;-73
2022/04/07 07:47:40;;;;;;;3.63;0.80;;;13.30;99.90;;;;;;5025489;28;20921;-71
2022/04/07 07:50:06;;;;;;;1.10;0.67;;;13.40;99.90;;;;;;5025991;28;20468;-73
2022/04/07 07:52:32;;;;;;;1.10;0.70;;;13.50;99.90;;;;;;5025617;28;20229;-71
2022/04/07 07:54:57;;;;;;;1.70;0.70;;;13.40;99.90;;;;;;5025895;28;20425;-73
2022/04/07 07:57:23;;;;;;;2.23;0.90;;;13.50;99.90;;;;;;5025932;28;20290;-74
2022/04/07 07:59:52;;;;;;;1.03;0.70;;;13.70;99.90;;;;;;5028075;28;20194;-72
2022/04/07 08:02:18;;;;;;;1.00;0.60;;;13.70;99.90;;;;;;5026262;28;20193;-70
2022/04/07 08:04:45;;;;;;;0.80;0.57;;;13.70;99.90;;;;;;5024845;28;20791;-72
2022/04/07 08:07:10;;;;;;;1.43;0.70;;;13.50;99.90;;;;;;5025971;28;20489;-71
2022/04/07 08:09:36;;;;;;;1.10;0.70;;;13.50;99.90;;;;;;5025577;28;20538;-72
2022/04/07 08:12:02;;;;;;;2.20;0.70;;;13.50;99.90;;;;;;5025235;28;20546;-70
2022/04/07 08:14:28;;;;;;;1.20;0.70;;;13.60;99.90;;;;;;5026059;28;20209;-71
2022/04/07 08:16:54;;;;;;;1.03;0.50;;;13.80;99.90;;;;;;5024209;28;20479;-69
2022/04/07 08:19:20;;;;;;;1.47;0.63;;;13.80;99.90;;;;;;5025007;28;20427;-73
2022/04/07 08:21:46;;;;;;;1.80;0.60;;;13.90;99.90;;;;;;5026031;28;20194;-70
2022/04/07 08:24:12;;;;;;;1.00;0.73;;;14.10;99.90;;;;;;5025049;28;20424;-70
2022/04/07 08:26:37;;;;;;;1.73;0.80;;;14.10;99.90;;;;;;5025541;28;20287;-72
2022/04/07 08:29:03;;;;;;;0.90;0.70;;;14.10;99.90;;;;;;5026986;28;20186;-72
2022/04/07 08:31:28;;;;;;;2.10;0.73;;;14.30;99.90;;;;;;5025247;28;20190;-70
2022/04/07 08:33:54;;;;;;;1.00;0.60;;;14.60;99.90;;;;;;5023982;28;20262;-69
2022/04/07 08:36:20;;;;;;;0.93;0.57;;;14.60;99.90;;;;;;5026204;28;20654;-71
2022/04/07 08:38:46;;;;;;;0.83;0.60;;;14.30;99.90;;;;;;5025734;28;20214;-70
2022/04/07 08:41:12;;;;;;;2.00;0.60;;;14.30;99.90;;;;;;5027366;28;20623;-72
2022/04/07 08:43:42;;;;;;;1.57;0.60;;;14.00;99.90;;;;;;5024537;28;20550;-69
2022/04/07 08:46:09;;;;;;;0.90;0.70;;;14.20;99.90;;;;;;5024206;28;20457;-71
2022/04/07 08:48:40;;;;;;;1.60;0.63;;;14.10;99.90;;;;;;5023761;28;20507;-71
2022/04/07 08:51:06;;;;;;;1.43;0.80;;;14.20;99.90;;;;;;5024125;28;20414;-73
2022/04/07 08:53:33;;;;;;;1.07;0.60;;;14.30;99.90;;;;;;5024474;28;20457;-73
2022/04/07 08:56:03;;;;;;;1.73;0.80;;;14.40;99.90;;;;;;5024567;28;20436;-72
2022/04/07 08:58:30;;;;;;;1.53;0.77;;;14.50;99.90;;;;;;5024188;28;20449;-71
2022/04/07 09:00:55;;;;;;;0.80;0.53;;;14.70;99.90;;;;;;5024470;28;20420;-70
2022/04/07 09:03:21;;;;;;;3.87;0.60;;;14.60;99.90;;;;;;5024079;28;20468;-72
2022/04/07 09:05:53;;;;;;;3.20;0.80;;;14.40;99.90;;;;;;5024348;28;20204;-71
2022/04/07 09:08:19;;;;;;;1.83;0.60;;;14.20;99.90;;;;;;5024124;28;20437;-71
2022/04/07 09:10:54;;;;;;;1.57;0.60;;;14.20;99.90;;;;;;5024328;28;20413;-71
2022/04/07 09:13:20;;;;;;;1.10;0.60;;;14.30;99.90;;;;;;5024052;28;20724;-71
2022/04/07 09:15:47;;;;;;;1.63;0.50;;;14.40;99.90;;;;;;5024022;28;20435;-72
2022/04/07 09:18:13;;;;;;;1.23;0.70;;;14.60;99.90;;;;;;5023512;28;20466;-71
2022/04/07 09:20:44;;;;;;;0.83;0.50;;;14.60;99.90;;;;;;5023935;28;20417;-71
2022/04/07 09:23:13;;;;;;;4.53;0.83;;;14.60;99.90;;;;;;5022769;28;20671;-70
2022/04/07 09:25:46;;;;;;;0.70;0.50;;;14.50;99.90;;;;;;5023898;28;20826;-70
2022/04/07 09:28:23;;;;;;;2.07;0.60;;;14.40;99.90;;;;;;5024219;28;20472;-72
2022/04/07 09:30:49;;;;;;;0.90;0.50;;;14.40;99.90;;;;;;5024564;28;20431;-75
2022/04/07 09:33:26;;;;;;;1.63;0.60;;;14.40;99.90;;;;;;5023505;28;20766;-71
2022/04/07 09:36:11;;;;;;;1.20;0.50;;;14.40;99.90;;;;;;5023810;28;20560;-71
2022/04/07 09:38:38;;;;;;;1.53;0.90;;;14.20;99.90;;;;;;5024327;28;20445;-71
2022/04/07 09:41:06;;;;;;;2.13;0.83;;;14.20;99.90;;;;;;5024223;28;20931;-71
2022/04/07 09:43:45;;;;;;;3.20;0.77;;;14.20;99.90;;;;;;5023953;28;20428;-71
2022/04/07 09:46:21;;;;;;;2.30;0.60;;;13.90;99.90;;;;;;5022469;28;20543;-71
2022/04/07 09:49:09;;;;;;;0.90;0.70;;;13.70;99.90;;;;;;5023738;28;20428;-71
2022/04/07 09:51:45;;;;;;;0.80;0.70;;;13.70;99.90;;;;;;5027306;28;20405;-71
2022/04/07 09:54:12;;;;;;;0.90;0.60;;;14.00;99.90;;;;;;5027937;28;20410;-71
2022/04/07 09:56:38;;;;;;;6.50;0.70;;;14.30;99.90;;;;;;5027491;28;20501;-72
2022/04/07 09:59:07;;;;;;;2.33;0.60;;;14.30;99.90;;;;;;5013344;28;21021;-71
2022/04/07 10:01:38;;;;;;;1.43;0.50;;;14.60;99.90;;;;;;5027199;28;20446;-70
2022/04/07 10:04:08;;;;;;;1.40;0.53;;;15.00;99.90;;;;;;5027437;28;20425;-73
2022/04/07 10:06:36;;;;;;;1.57;0.73;;;15.30;99.90;;;;;;5028978;28;21134;-74
2022/04/07 10:09:04;;;;;;;1.93;0.70;;;15.40;99.90;;;;;;5026301;28;20423;-70
2022/04/07 10:11:31;;;;;;;1.00;0.50;;;15.50;99.90;;;;;;5027523;28;20987;-73
2022/04/07 10:13:57;;;;;;;2.20;0.60;;;15.40;99.90;;;;;;5027460;28;20968;-71
2022/04/07 10:16:23;;;;;;;4.00;0.67;;;15.50;99.90;;;;;;5027415;28;20423;-72
2022/04/07 10:18:55;;;;;;;1.23;0.50;;;15.70;99.90;;;;;;5037670;22;20606;-71
2022/04/07 10:21:30;;;;;;;0.90;0.60;;;15.50;99.90;;;;;;5007554;28;20196;-70
2022/04/07 10:24:23;;;;;;;1.17;0.60;;;15.60;99.90;;;;;;5006511;28;20432;-71
2022/04/07 10:26:50;;;;;;;0.90;0.50;;;15.70;99.90;;;;;;5026988;28;20468;-70
2022/04/07 10:29:23;;;;;;;3.90;0.60;;;15.70;99.90;;;;;;5015294;28;20456;-72
2022/04/07 10:32:11;;;;;;;2.07;0.60;;;15.50;99.90;;;;;;5022096;28;20777;-70
2022/04/07 10:34:37;;;;;;;1.40;0.40;;;15.50;99.90;;;;;;5013135;28;20419;-72
2022/04/07 10:37:06;;;;;;;0.83;0.60;;;15.30;99.90;;;;;;5020051;28;20423;-72
2022/04/07 10:39:39;;;;;;;1.30;0.60;;;15.40;99.90;;;;;;5007090;28;20667;-72
2022/04/07 10:42:05;;;;;;;0.90;0.50;;;15.30;99.90;;;;;;4989699;28;20476;-73
2022/04/07 10:44:33;;;;;;;1.33;0.70;;;15.40;99.90;;;;;;5010913;28;20414;-73
2022/04/07 10:47:07;;;;;;;0.80;0.60;;;15.50;99.90;;;;;;5020030;28;21038;-73
2022/04/07 10:49:33;;;;;;;0.80;0.50;;;15.20;99.90;;;;;;5026225;28;20479;-70
2022/04/07 10:52:02;;;;;;;1.83;0.83;;;15.30;99.90;;;;;;5026103;28;20452;-70
2022/04/07 10:54:29;;;;;;;1.90;0.73;;;15.70;99.90;;;;;;5010836;28;20414;-70
2022/04/07 10:56:56;;;;;;;0.90;0.57;;;16.30;99.90;;;;;;4999558;28;20973;-71
2022/04/07 10:59:29;;;;;;;1.20;0.50;;;16.70;99.90;;;;;;5016889;28;20498;-71
2022/04/07 11:02:03;;;;;;;1.23;0.50;;;16.40;99.90;;;;;;5007471;28;20410;-72
2022/04/07 11:04:29;;;;;;;3.27;0.90;;;16.40;99.90;;;;;;5007154;28;20421;-72
2022/04/07 11:07:15;;;;;;;0.70;0.50;;;16.40;99.90;;;;;;5013711;28;20457;-71
2022/04/07 11:10:00;;;;;;;0.70;0.50;;;15.80;99.90;;;;;;5021957;28;20178;-70
2022/04/07 11:12:29;;;;;;;1.13;0.77;;;15.60;99.90;;;;;;5016210;28;20874;-71
2022/04/07 11:15:01;;;;;;;2.00;0.60;;;15.70;99.90;;;;;;5016257;28;20421;-71
2022/04/07 11:17:37;;;;;;;2.77;0.60;;;15.80;99.90;;;;;;5016492;28;20443;-71
2022/04/07 11:20:35;;;;;;;3.43;0.80;;;15.80;99.90;;;;;;5012622;28;20603;-70
2022/04/07 11:23:05;;;;;;;2.20;0.60;;;15.90;99.90;;;;;;4951752;28;20432;-69
2022/04/07 11:25:41;;;;;;;1.27;0.50;;;15.80;99.90;;;;;;5013859;28;20530;-69
2022/04/07 11:28:14;;;;;;;1.70;0.53;;;15.80;99.90;;;;;;5025275;28;20539;-69
2022/04/07 11:30:40;;;;;;;1.80;0.60;;;15.80;99.90;;;;;;5008930;28;20454;-69
2022/04/07 11:33:27;;;;;;;1.10;0.60;;;16.00;99.90;;;;;;5005093;28;20430;-70
2022/04/07 11:35:58;;;;;;;3.33;0.50;;;16.30;99.90;;;;;;5006144;28;20175;-69
2022/04/07 11:38:31;;;;;;;1.93;0.60;;;16.10;99.90;;;;;;5007363;28;20438;-70
2022/04/07 11:41:03;;;;;;;1.17;0.50;;;15.90;99.90;;;;;;5016941;28;20736;-69
2022/04/07 11:43:30;;;;;;;4.30;0.93;;;16.00;99.90;;;;;;5018975;28;20415;-71
2022/04/07 11:45:56;;;;;;;0.70;0.50;;;16.00;99.90;;;;;;5022676;28;20452;-73
2022/04/07 11:48:23;;;;;;;0.80;0.40;;;15.80;99.90;;;;;;5004294;28;20444;-71
2022/04/07 11:51:02;;;;;;;1.83;0.47;;;15.80;99.90;;;;;;4989416;28;21279;-68
2022/04/07 11:53:28;;;;;;;0.70;0.50;;;16.00;99.90;;;;;;5007741;28;20935;-69
2022/04/07 11:55:54;;;;;;;1.70;0.67;;;15.90;99.90;;;;;;5010546;28;20416;-70
2022/04/07 11:58:20;;;;;;;1.00;0.50;;;15.90;99.90;;;;;;5017291;28;20424;-73
2022/04/07 12:00:46;;;;;;;0.90;0.50;;;15.80;99.90;;;;;;5024986;28;20802;-71
2022/04/07 12:03:12;;;;;;;2.30;0.40;;;15.90;99.90;;;;;;5025026;28;20228;-71
2022/04/07 12:05:39;;;;;;;3.13;0.53;;;16.00;99.90;;;;;;5013942;28;20520;-71
2022/04/07 12:08:10;;;;;;;1.80;0.57;;;15.70;99.90;;;;;;5025088;28;20577;-71
2022/04/07 12:10:38;;;;;;;1.63;1.23;;;15.50;99.90;;;;;;5025223;28;20414;-71
2022/04/07 12:13:04;;;;;;;1.83;0.50;;;15.60;99.90;;;;;;5004184;28;20873;-72
2022/04/07 12:15:30;;;;;;;1.40;0.50;;;15.70;99.90;;;;;;5019395;28;20415;-69
2022/04/07 12:18:07;;;;;;;1.73;0.47;;;15.80;99.90;;;;;;5012657;28;20973;-71
2022/04/07 12:20:34;;;;;;;0.90;0.50;;;15.60;99.90;;;;;;4989996;28;20781;-75
2022/04/07 12:23:11;;;;;;;2.67;0.60;;;15.50;99.90;;;;;;5015684;28;20455;-71
2022/04/07 12:25:42;;;;;;;1.30;0.60;;;15.70;99.90;;;;;;5005697;28;20889;-72
2022/04/07 12:28:12;;;;;;;1.37;0.50;;;15.70;99.90;;;;;;4994770;28;20560;-71
2022/04/07 12:30:51;;;;;;;1.07;0.50;;;15.50;99.90;;;;;;4996322;28;20423;-72
2022/04/07 12:33:46;;;;;;;1.80;0.77;;;15.30;99.90;;;;;;4988749;28;20437;-73
2022/04/07 12:36:35;;;;;;;1.40;0.50;;;15.00;99.90;;;;;;5018545;28;20443;-72
2022/04/07 12:39:08;;;;;;;0.60;0.40;;;15.10;99.90;;;;;;4987285;28;20544;-71
2022/04/07 12:41:35;;;;;;;1.13;0.60;;;15.20;99.90;;;;;;5014787;28;20686;-71
2022/04/07 12:44:01;;;;;;;1.73;0.60;;;15.20;99.90;;;;;;5011473;28;20419;-71
2022/04/07 12:46:46;;;;;;;1.20;0.50;;;15.00;99.90;;;;;;5013567;28;20967;-70
2022/04/07 12:49:12;;;;;;;3.07;0.50;;;15.00;99.90;;;;;;5004715;28;20212;-73
2022/04/07 12:51:39;;;;;;;1.70;0.40;;;15.20;99.90;;;;;;5016496;28;20803;-72